Aérodrome :
LOGIN :

S'inscrire | Disclaimer

   EN    FR    IT 

 










Légende :    VFR   VFR Marginal   IFR   IFR Intensif   IFR Très Intensif
Visi : 
Plafond : 
>= 8 km
>= 3000ft
5 à 8 km
1000 à 3000 ft
1500m à 5 km
500 à 1000 ft
800 à 1500m
200 à 500 ft
< 800m
< 200 ft
Symboles :   Orages  Brouillard  Fortes neiges  Fortes précipitations  Vent > 20 kt
SIGMETs :   Divers  Orages  Givrage  Turbulence  Onde Orograph.  Cendres Volcan.






- Altitude de l'aérodrome : 735 ft
- Code IATA : EGO


UUOB - Belgorod

DERNIER METAR :
  • 051030Z 31010MPS 9999 BKN050CB 10/M09 Q1026 R29/010060 NOSIG

METARs EXPIRÉS :
  • 051000Z 32008G13MPS 290V360 9999 BKN050CB 10/M08 Q1026 R29/010060 NOSIG
  • 050930Z 31010MPS 9999 BKN050CB 08/M06 Q1026 R29/010060 NOSIG
  • 050900Z 31008MPS 9999 BKN050CB 09/M06 Q1026 R29/010060 NOSIG
  • 050830Z 31008MPS 9999 BKN050CB 07/M06 Q1027 R29/010060 NOSIG

TAF TAF UUOB
Valide du 05 à 09h jusqu'au 05 à 18h UTC


050800Z 0509/0518 31007MPS 9999 SCT030
TEMPO 0509/0515 32009G14MPS



MET'MAP, la Météo Aéronautique d'un coup d'oeil ! - Copyright ORBIFLY Décembre 2007 - Disclaimer

ORBIFLY MET'MAP TEAM :

Programmation & Développement : Alexandra Zaïnal
Sur une idée originale de : Baudouin d'Aumeries
Assistance à la programmation : Marc-Olivier Méhu
Soutien technique & logistique : Manuel Goepfert

Contact : metmap@orbifly.com




SOURCES & CREDITS :

   NOAA